Time;durP1;ratioP1;P1;durP2;ratioP2;P2;SDS_P1;SDS_P2;PMS_P1;PMS_P2;Temp;Humidity;BMP_temperature;BMP_pressure;BME280_temperature;BME280_humidity;BME280_pressure;Samples;Min_cycle;Max_cycle;Signal;HPM_P1;HPM_P2
2024/01/01 00:03:43;;;;;;;41.95;25.27;;;;;;;;;;5120504;27;20396;-92
2024/01/01 00:06:12;;;;;;;51.80;32.13;;;;;;;;;;5100994;27;20390;-90
2024/01/01 00:08:38;;;;;;;59.55;39.05;;;;;;;;;;5107244;27;20402;-91
2024/01/01 00:11:05;;;;;;;78.85;51.65;;;;;;;;;;5108384;27;20831;-91
2024/01/01 00:13:54;;;;;;;122.03;82.18;;;;;;;;;;5104038;28;20400;-91
2024/01/01 00:16:36;;;;;;;;;;;;;;;;;;;;;
2024/01/01 00:19:53;;;;;;;;;;;;;;;;;;;;;
2024/01/01 00:22:26;;;;;;;72.82;47.05;;;;;;;;;;5114934;27;20409;-91
2024/01/01 00:24:54;;;;;;;114.22;74.43;;;;;;;;;;5117876;27;20457;-91
2024/01/01 00:27:20;;;;;;;59.80;35.05;;;;;;;;;;5104806;27;20422;-90
2024/01/01 00:29:46;;;;;;;57.90;35.75;;;;;;;;;;5098654;27;20393;-89
2024/01/01 00:32:18;;;;;;;65.15;42.72;;;;;;;;;;5117739;27;20476;-91
2024/01/01 00:34:44;;;;;;;57.05;35.90;;;;;;;;;;5116041;27;20404;-90
2024/01/01 00:40:33;;;;;;;52.25;31.50;;;;;;;;;;5129102;27;20815;-91
2024/01/01 00:43:19;;;;;;;39.75;26.58;;;7.30;99.90;;;;;;5107518;28;20395;-90
2024/01/01 00:45:46;;;;;;;49.80;29.88;;;;;;;;;;5133823;27;20405;-91
2024/01/01 00:48:36;;;;;;;50.17;31.07;;;;;;;;;;5112288;27;20489;-90
2024/01/01 00:51:03;;;;;;;68.22;39.65;;;;;;;;;;5102577;28;20476;-89
2024/01/01 00:53:29;;;;;;;69.15;40.50;;;;;;;;;;5114870;27;20449;-91
2024/01/01 00:56:21;;;;;;;83.28;49.95;;;;;;;;;;5104035;28;20435;-90
2024/01/01 00:58:47;;;;;;;91.70;55.78;;;;;;;;;;5122360;27;20464;-91
2024/01/01 01:01:13;;;;;;;41.15;25.23;;;;;;;;;;5108117;27;20502;-87
2024/01/01 01:03:39;;;;;;;52.00;32.42;;;;;;;;;;5121330;27;20389;-86
2024/01/01 01:06:05;;;;;;;47.70;28.83;;;;;;;;;;5101606;27;20508;-85
2024/01/01 01:08:32;;;;;;;47.17;28.52;;;;;;;;;;5101271;27;20408;-85
2024/01/01 01:10:58;;;;;;;41.90;26.07;;;;;;;;;;5117654;27;20871;-85
2024/01/01 01:13:24;;;;;;;43.22;25.90;;;;;;;;;;5102401;27;20399;-87
2024/01/01 01:15:50;;;;;;;49.88;28.75;;;;;;;;;;5117900;27;20713;-86
2024/01/01 01:18:16;;;;;;;49.93;30.97;;;;;;;;;;5099326;28;20403;-86
2024/01/01 01:20:42;;;;;;;51.08;33.05;;;;;;;;;;5099720;28;20730;-85
2024/01/01 01:23:08;;;;;;;48.55;32.10;;;;;;;;;;5109247;27;20391;-85
2024/01/01 01:25:35;;;;;;;49.80;32.40;;;;;;;;;;5126277;27;20492;-86
2024/01/01 01:28:03;;;;;;;50.27;32.73;;;;;;;;;;5118846;27;20442;-86
2024/01/01 01:30:29;;;;;;;49.38;31.80;;;;;;;;;;5116397;27;20831;-87
2024/01/01 01:32:55;;;;;;;52.70;33.20;;;;;;;;;;5098554;27;20480;-86
2024/01/01 01:35:21;;;;;;;50.60;32.22;;;;;;;;;;5109544;27;20396;-86
2024/01/01 01:37:48;;;;;;;47.38;31.92;;;;;;;;;;5100589;27;20392;-86
2024/01/01 01:40:22;;;;;;;47.17;30.95;;;;;;;;;;5096019;28;20503;-87
2024/01/01 01:42:48;;;;;;;55.67;34.05;;;;;;;;;;5102550;27;20395;-86
2024/01/01 01:45:14;;;;;;;42.88;28.40;;;;;;;;;;5095358;27;20396;-86
2024/01/01 01:47:41;;;;;;;43.85;29.00;;;;;;;;;;5114657;27;20420;-86
2024/01/01 01:50:07;;;;;;;38.92;25.45;;;;;;;;;;5101590;27;20461;-86
2024/01/01 01:52:46;;;;;;;37.65;24.30;;;;;;;;;;5107307;27;20391;-85
2024/01/01 01:55:12;;;;;;;36.80;22.70;;;;;;;;;;5105680;27;20924;-83
2024/01/01 01:57:40;;;;;;;34.75;21.25;;;;;;;;;;5109746;27;20497;-87
2024/01/01 02:00:13;;;;;;;32.85;21.27;;;;;;;;;;5099152;28;20466;-87
2024/01/01 02:02:58;;;;;;;32.47;21.65;;;;;;;;;;5107236;27;20893;-86
2024/01/01 02:05:32;;;;;;;33.37;22.37;;;;;;;;;;5114446;27;20424;-85
2024/01/01 02:08:11;;;;;;;35.97;23.08;;;;;;;;;;5110295;27;20387;-84
2024/01/01 02:10:48;;;;;;;34.83;22.42;;;;;;;;;;5119050;27;20400;-86
2024/01/01 02:13:30;;;;;;;32.33;21.30;;;;;;;;;;5100087;28;20423;-87
2024/01/01 02:16:04;;;;;;;31.83;20.52;;;;;;;;;;5121246;27;20410;-87
2024/01/01 02:18:30;;;;;;;32.00;21.88;;;;;;;;;;5108823;27;20889;-87
2024/01/01 02:21:07;;;;;;;37.70;22.83;;;;;;;;;;5102153;28;20755;-87
2024/01/01 02:23:43;;;;;;;34.10;21.63;;;;;;;;;;5121442;27;20820;-86
2024/01/01 02:26:16;;;;;;;33.13;22.08;;;;;;;;;;5101453;28;20404;-86
2024/01/01 02:28:42;;;;;;;35.28;22.98;;;;;;;;;;5124266;27;20399;-88
2024/01/01 02:31:09;;;;;;;35.95;21.73;;;;;;;;;;5096027;28;20457;-87
2024/01/01 02:34:19;;;;;;;;;;;;;;;;;;;;;
2024/01/01 02:36:58;;;;;;;37.67;23.30;;;;;;;;;;5112646;27;20489;-87
2024/01/01 02:39:24;;;;;;;34.13;23.00;;;;;;;;;;5126158;28;20782;-86
2024/01/01 02:41:50;;;;;;;33.13;22.13;;;;;;;;;;5105740;28;20474;-85
2024/01/01 02:44:18;;;;;;;27.05;17.27;;;;;;;;;;5101036;28;20478;-86
2024/01/01 02:46:54;;;;;;;31.03;17.10;;;;;;;;;;5096212;28;20920;-86
2024/01/01 02:49:26;;;;;;;29.80;18.52;;;;;;;;;;5108985;28;20395;-84
2024/01/01 02:52:07;;;;;;;25.83;15.20;;;;;;;;;;5110614;28;20764;-84
2024/01/01 02:54:42;;;;;;;26.00;16.38;;;;;;;;;;5096158;28;20511;-84
2024/01/01 02:57:09;;;;;;;25.17;14.57;;;;;;;;;;5109262;28;20979;-85
2024/01/01 02:59:45;;;;;;;27.15;15.68;;;;;;;;;;5125028;27;20416;-85
2024/01/01 03:02:13;;;;;;;28.48;16.02;;;;;;;;;;5112720;27;20402;-85
2024/01/01 03:04:39;;;;;;;26.93;16.17;;;;;;;;;;5116472;27;20402;-85
2024/01/01 03:07:06;;;;;;;29.20;16.00;;;;;;;;;;5103786;27;20423;-85
2024/01/01 03:09:32;;;;;;;24.77;15.43;;;;;;;;;;5103327;27;20942;-83
2024/01/01 03:12:01;;;;;;;23.65;14.98;;;;;;;;;;5116513;27;20408;-85
2024/01/01 03:14:33;;;;;;;24.40;14.77;;;;;;;;;;5109000;27;20394;-85
2024/01/01 03:17:05;;;;;;;23.90;13.70;;;;;;;;;;5123956;27;20994;-85
2024/01/01 03:19:34;;;;;;;22.42;12.82;;;;;;;;;;5118550;27;20494;-85
2024/01/01 03:22:02;;;;;;;21.27;11.50;;;;;;;;;;5115339;27;20419;-86
2024/01/01 03:24:34;;;;;;;20.75;11.27;;;;;;;;;;5118070;27;20899;-85
2024/01/01 03:27:02;;;;;;;19.70;10.82;;;;;;;;;;5108215;27;20424;-86
2024/01/01 03:29:37;;;;;;;21.25;10.45;;;;;;;;;;5117466;27;20485;-86
2024/01/01 03:38:59;;;;;;;20.77;10.90;;;;;;;;;;5113544;27;20495;-85
2024/01/01 03:41:26;;;;;;;17.92;8.20;;;;;;;;;;5101199;27;20484;-85
2024/01/01 03:43:52;;;;;;;17.85;9.27;;;;;;;;;;5122536;27;20748;-85
2024/01/01 03:46:18;;;;;;;16.73;8.20;;;;;;;;;;5116474;27;20392;-85
2024/01/01 03:48:44;;;;;;;17.15;8.38;;;;;;;;;;5117732;27;20966;-84
2024/01/01 03:51:11;;;;;;;20.73;8.93;;;;;;;;;;5108715;28;20391;-84
2024/01/01 03:53:37;;;;;;;16.85;7.35;;;;;;;;;;5108553;28;20396;-85
2024/01/01 03:56:03;;;;;;;16.40;7.75;;;;;;;;;;5124677;27;20424;-84
2024/01/01 03:58:29;;;;;;;19.75;7.95;;;;;;;;;;5098570;27;20526;-85
2024/01/01 04:00:56;;;;;;;18.67;8.02;;;;;;;;;;5103235;27;20398;-85
2024/01/01 04:03:22;;;;;;;16.57;8.00;;;;;;;;;;5089330;28;20914;-85
2024/01/01 04:05:48;;;;;;;14.02;6.80;;;;;;;;;;5099983;28;20403;-86
2024/01/01 04:08:14;;;;;;;14.25;6.80;;;;;;;;;;5106612;27;20426;-86
2024/01/01 04:10:40;;;;;;;19.10;7.40;;;;;;;;;;5115269;27;20513;-84
2024/01/01 04:13:06;;;;;;;17.70;7.07;;;;;;;;;;5104326;28;20453;-85
2024/01/01 04:15:32;;;;;;;14.40;6.10;;;;;;;;;;5117003;27;20391;-85
2024/01/01 04:17:58;;;;;;;13.05;5.78;;;;;;;;;;5105367;28;20449;-85
2024/01/01 04:20:24;;;;;;;14.07;5.97;;;;;;;;;;5124093;27;20463;-85
2024/01/01 04:22:51;;;;;;;10.88;5.30;;;;;;;;;;5094471;27;20399;-85
2024/01/01 04:25:20;;;;;;;12.57;4.82;;;;;;;;;;5095512;27;20394;-85
2024/01/01 04:27:47;;;;;;;14.88;5.15;;;;;;;;;;5118269;27;20393;-84
2024/01/01 04:30:13;;;;;;;12.50;5.35;;;;;;;;;;5104954;27;20889;-86
2024/01/01 04:32:39;;;;;;;9.82;4.30;;;;;;;;;;5119833;27;20400;-86
2024/01/01 04:35:06;;;;;;;13.17;4.80;;;;;;;;;;5119413;27;20435;-85
2024/01/01 04:37:32;;;;;;;12.30;4.32;;;;;;;;;;5098611;27;20490;-84
2024/01/01 04:40:05;;;;;;;10.57;4.70;;;;;;;;;;5089269;28;20932;-85
2024/01/01 04:42:39;;;;;;;11.55;4.30;;;;;;;;;;5106662;27;20437;-84
2024/01/01 04:45:06;;;;;;;11.23;4.40;;;;;;;;;;5100694;27;20399;-84
2024/01/01 04:47:32;;;;;;;12.23;4.20;;;;;;;;;;5122972;27;20419;-85
2024/01/01 04:49:58;;;;;;;13.18;4.40;;;;;;;;;;5116792;27;20879;-87
2024/01/01 04:52:24;;;;;;;12.30;4.30;;;;;;;;;;5118301;27;20401;-87
2024/01/01 04:54:54;;;;;;;12.57;4.60;;;;;;;;;;5109061;27;20445;-86
2024/01/01 04:57:20;;;;;;;12.30;4.47;;;;;;;;;;5100119;27;20408;-85
2024/01/01 04:59:46;;;;;;;11.80;4.38;;;;;;;;;;5102720;28;20447;-85
2024/01/01 05:02:15;;;;;;;11.30;4.43;;;;;;;;;;5108253;27;20392;-86
2024/01/01 05:04:41;;;;;;;12.73;4.20;;;;;;;;;;5108411;27;20465;-87
2024/01/01 05:07:07;;;;;;;11.27;4.43;;;;;;;;;;5099340;27;20399;-85
2024/01/01 05:09:33;;;;;;;13.35;4.63;;;;;;;;;;5118896;27;20436;-85
2024/01/01 05:12:05;;;;;;;13.70;4.75;;;;;;;;;;5098925;28;20420;-85
2024/01/01 05:14:31;;;;;;;11.77;4.55;;;;;;;;;;5122202;27;20408;-86
2024/01/01 05:16:58;;;;;;;10.27;4.18;;;;;;;;;;5089663;28;20899;-86
2024/01/01 05:19:24;;;;;;;11.00;4.70;;;;;;;;;;5125285;27;20410;-86
2024/01/01 05:21:50;;;;;;;13.20;4.93;;;;;;;;;;5104957;27;20865;-86
2024/01/01 05:24:16;;;;;;;15.15;5.03;;;;;;;;;;5101359;28;20396;-87
2024/01/01 05:26:42;;;;;;;14.38;4.78;;;;;;;;;;5083400;28;20392;-84
2024/01/01 05:29:08;;;;;;;13.70;4.45;;;;;;;;;;5116572;27;20458;-87
2024/01/01 05:31:34;;;;;;;17.42;4.72;;;;;;;;;;5097692;28;20404;-84
2024/01/01 05:34:00;;;;;;;13.00;4.32;;;;;;;;;;5113880;27;20453;-84
2024/01/01 05:36:26;;;;;;;12.75;4.82;;;;;;;;;;5101066;27;20434;-85
2024/01/01 05:38:53;;;;;;;17.17;4.97;;;;;;;;;;5106487;28;20481;-85
2024/01/01 05:41:19;;;;;;;18.05;4.75;;;;;;;;;;5101455;27;20400;-83
2024/01/01 05:43:45;;;;;;;14.43;5.00;;;;;;;;;;5117547;27;20403;-84
2024/01/01 05:46:11;;;;;;;11.18;4.80;;;;;;;;;;5098335;28;20419;-85
2024/01/01 05:48:37;;;;;;;16.58;5.10;;;;;;;;;;5095318;28;20396;-86
2024/01/01 05:51:03;;;;;;;16.33;5.47;;;;;;;;;;5098878;28;20929;-83
2024/01/01 05:53:29;;;;;;;13.63;4.57;;;;;;;;;;5099764;28;20400;-85
2024/01/01 05:55:55;;;;;;;17.00;5.20;;;;;;;;;;5095104;28;20420;-86
2024/01/01 05:58:22;;;;;;;14.60;5.28;;;;;;;;;;5118491;27;20400;-85
2024/01/01 06:00:48;;;;;;;18.77;5.38;;;;;;;;;;5086934;28;20403;-85
2024/01/01 06:03:14;;;;;;;19.35;5.55;;;;;;;;;;5097791;27;20754;-85
2024/01/01 06:05:40;;;;;;;12.73;4.30;;;;;;;;;;5101145;28;20388;-85
2024/01/01 06:08:06;;;;;;;11.82;4.05;;;;;;;;;;5123970;27;20410;-85
2024/01/01 06:10:33;;;;;;;15.35;5.30;;;;;;;;;;5107702;27;20424;-86
2024/01/01 06:12:59;;;;;;;10.95;3.25;;;;;;;;;;5121338;27;20406;-86
2024/01/01 06:15:27;;;;;;;13.27;4.30;;;;;;;;;;5124307;27;20758;-86
2024/01/01 06:17:53;;;;;;;12.70;4.40;;;;;;;;;;5101060;28;20923;-87
2024/01/01 06:20:19;;;;;;;17.23;5.82;;;;;;;;;;5106288;27;20502;-86
2024/01/01 06:22:47;;;;;;;25.63;7.43;;;;;;;;;;5102028;27;20416;-86
2024/01/01 06:25:13;;;;;;;19.87;6.33;;;;;;;;;;5121760;27;20479;-87
2024/01/01 06:27:39;;;;;;;15.65;5.50;;;;;;;;;;5105899;28;20432;-87
2024/01/01 06:30:06;;;;;;;23.08;6.78;;;;;;;;;;5105163;28;20445;-88
2024/01/01 06:32:32;;;;;;;19.27;6.10;;;;;;;;;;5096545;28;20472;-86
2024/01/01 06:34:58;;;;;;;15.97;5.80;;;;;;;;;;5109705;28;20405;-86
2024/01/01 06:37:24;;;;;;;21.33;5.70;;;;;;;;;;5114733;28;20396;-86
2024/01/01 06:39:50;;;;;;;18.40;5.50;;;;;;;;;;5114122;28;20741;-84
2024/01/01 06:42:17;;;;;;;16.65;5.28;;;;;;;;;;5101291;28;20411;-85
2024/01/01 06:44:43;;;;;;;17.90;5.75;;;;;;;;;;5100950;28;20400;-86
2024/01/01 06:47:09;;;;;;;17.30;5.30;;;;;;;;;;5096796;28;20400;-87
2024/01/01 06:49:36;;;;;;;15.93;4.97;;;;;;;;;;5099900;28;20940;-87
2024/01/01 06:52:03;;;;;;;15.95;4.57;;;;;;;;;;5099437;28;20407;-87
2024/01/01 06:54:29;;;;;;;19.80;5.10;;;;;;;;;;5121428;27;20874;-89
2024/01/01 06:56:58;;;;;;;18.80;4.82;;;;;;;;;;5103611;28;20532;-88
2024/01/01 06:59:29;;;;;;;16.92;5.50;;;;;;;;;;5090944;28;21009;-89
2024/01/01 07:01:58;;;;;;;17.67;5.38;;;;;;;;;;5101464;28;20395;-86
2024/01/01 07:04:25;;;;;;;16.58;4.78;;;;;;;;;;5120435;28;20398;-88
2024/01/01 07:06:51;;;;;;;20.15;5.72;;;;;;;;;;5105961;28;20401;-88
2024/01/01 07:09:17;;;;;;;15.35;5.00;;;;;;;;;;5101195;28;20964;-87
2024/01/01 07:11:44;;;;;;;19.83;5.80;;;;;;;;;;5096519;28;20396;-88
2024/01/01 07:14:10;;;;;;;19.35;5.60;;;;;;;;;;5121096;28;20396;-88
2024/01/01 07:16:36;;;;;;;14.15;4.95;;;;;;;;;;5125467;28;20404;-90
2024/01/01 07:19:02;;;;;;;15.75;4.88;;;;;;;;;;5114923;28;20420;-90
2024/01/01 07:21:29;;;;;;;15.00;4.60;;;;;;;;;;5116822;28;20400;-90
2024/01/01 07:23:55;;;;;;;14.73;4.40;;;;;;;;;;5096283;28;20966;-91
2024/01/01 07:26:21;;;;;;;11.80;4.20;;;;;;;;;;5126523;28;20440;-91
2024/01/01 07:28:47;;;;;;;12.00;4.38;;;;;;;;;;5103008;28;20491;-90
2024/01/01 07:31:13;;;;;;;13.77;4.82;;;;;;;;;;5093016;28;20457;-90
2024/01/01 07:33:39;;;;;;;16.35;5.20;;;;;;;;;;5106169;28;20399;-88
2024/01/01 07:36:11;;;;;;;14.57;5.57;;;;;;;;;;5095674;28;20483;-90
2024/01/01 07:38:39;;;;;;;16.05;5.32;;;;;;;;;;5094536;28;20469;-88
2024/01/01 07:41:05;;;;;;;22.05;5.55;;;;;;;;;;5112149;28;20409;-89
2024/01/01 07:43:32;;;;;;;25.38;6.03;;;;;;;;;;5121448;28;20401;-87
2024/01/01 07:45:58;;;;;;;28.80;6.13;;;;;;;;;;5097420;28;20421;-87
2024/01/01 07:48:24;;;;;;;21.23;6.38;;;;;;;;;;5109883;27;20395;-87
2024/01/01 07:50:50;;;;;;;12.17;3.20;;;;;;;;;;5119488;27;20473;-87
2024/01/01 07:53:16;;;;;;;8.77;2.22;;;;;;;;;;5089626;28;20429;-89
2024/01/01 07:55:42;;;;;;;6.97;1.70;;;;;;;;;;5104397;27;20400;-89
2024/01/01 07:58:08;;;;;;;9.23;2.15;;;;;;;;;;5106357;28;20392;-89
2024/01/01 08:04:15;;;;;;;8.23;2.58;;;6.60;99.90;;;;;;5123851;27;20406;-88
2024/01/01 08:06:41;;;;;;;8.45;2.20;;;;;;;;;;5122823;27;20484;-88
2024/01/01 08:09:08;;;;;;;9.20;1.90;;;;;;;;;;5110160;27;20402;-88
2024/01/01 08:11:46;;;;;;;9.38;2.55;;;;;;;;;;5102762;27;20412;-87
2024/01/01 08:14:12;;;;;;;9.30;2.28;;;;;;;;;;5107281;27;20890;-87
2024/01/01 08:16:47;;;;;;;8.10;2.15;;;;;;;;;;5102695;27;20403;-88
2024/01/01 08:19:15;;;;;;;5.55;1.90;;;;;;;;;;5103486;28;20443;-87
2024/01/01 08:22:20;;;;;;;8.00;2.38;;;;;;;;;;5116860;27;20379;-88
2024/01/01 08:24:49;;;;;;;10.32;2.75;;;;;;;;;;5113357;27;20501;-83
2024/01/01 08:27:26;;;;;;;8.30;2.53;;;;;;;;;;5119305;27;20404;-86
2024/01/01 08:29:53;;;;;;;10.55;2.95;;;;;;;;;;5102174;27;20525;-86
2024/01/01 08:32:19;;;;;;;9.85;2.58;;;;;;;;;;5118490;27;20407;-87
2024/01/01 08:34:45;;;;;;;9.57;2.88;;;;;;;;;;5126011;27;20961;-84
2024/01/01 08:37:11;;;;;;;9.40;3.00;;;;;;;;;;5106427;27;20428;-83
2024/01/01 08:39:37;;;;;;;11.77;3.10;;;;;;;;;;5117523;27;20420;-84
2024/01/01 08:42:06;;;;;;;12.52;3.40;;;;;;;;;;5092545;27;20540;-83
2024/01/01 08:44:33;;;;;;;10.98;3.60;;;;;;;;;;5103664;28;20396;-82
2024/01/01 08:46:59;;;;;;;15.02;3.60;;;;;;;;;;5096169;27;20407;-80
2024/01/01 08:49:25;;;;;;;14.40;4.15;;;;;;;;;;5108399;27;20403;-79
2024/01/01 08:51:51;;;;;;;15.73;4.47;;;;;;;;;;5103703;27;21972;-79
2024/01/01 08:54:18;;;;;;;21.05;5.15;;;;;;;;;;5115231;27;20404;-79
2024/01/01 08:56:44;;;;;;;20.05;5.20;;;;;;;;;;5104239;27;20406;-79
2024/01/01 08:59:15;;;;;;;19.80;4.50;;;;;;;;;;5106054;27;20422;-80
2024/01/01 09:01:45;;;;;;;24.98;4.90;;;;;;;;;;5127022;27;20398;-80
2024/01/01 09:04:13;;;;;;;19.95;4.93;;;;;;;;;;5127311;27;20449;-80
2024/01/01 09:06:41;;;;;;;18.13;5.10;;;;;;;;;;5095565;27;20427;-80
2024/01/01 09:09:12;;;;;;;20.10;4.90;;;;;;;;;;5118028;27;20446;-80
2024/01/01 09:12:05;;;;;;;21.50;4.22;;;;;;;;;;5092906;27;20403;-81
2024/01/01 09:14:31;;;;;;;19.70;4.47;;;;;;;;;;5108003;27;20493;-82
2024/01/01 09:17:07;;;;;;;11.88;3.25;;;;;;;;;;5117180;27;20424;-80
2024/01/01 09:19:34;;;;;;;10.40;2.90;;;;;;;;;;5085751;27;20424;-83
2024/01/01 09:22:00;;;;;;;18.73;3.90;;;;;;;;;;5113964;27;20401;-81
2024/01/01 09:24:38;;;;;;;14.38;3.75;;;;;;;;;;5106170;27;20475;-81
2024/01/01 09:27:07;;;;;;;18.42;3.80;;;;;;;;;;5102090;27;20390;-81
2024/01/01 09:29:34;;;;;;;14.33;3.80;;;;;;;;;;5131493;27;20442;-82
2024/01/01 09:32:00;;;;;;;18.73;3.65;;;;;;;;;;5100450;27;20430;-83
2024/01/01 09:34:26;;;;;;;18.30;3.90;;;;;;;;;;5103740;27;20431;-83
2024/01/01 09:36:52;;;;;;;19.08;4.10;;;;;;;;;;5083835;28;20400;-82
2024/01/01 09:39:18;;;;;;;15.27;3.40;;;;;;;;;;5098951;27;20463;-82
2024/01/01 09:41:44;;;;;;;14.25;3.03;;;;;;;;;;5089887;27;20546;-83
2024/01/01 09:44:11;;;;;;;18.30;4.20;;;;;;;;;;5099561;27;20400;-83
2024/01/01 09:46:40;;;;;;;22.67;3.85;;;;;;;;;;5117829;27;20457;-84
2024/01/01 09:49:09;;;;;;;14.90;3.55;;;;;;;;;;5101284;27;20442;-83
2024/01/01 09:51:39;;;;;;;14.30;4.28;;;;;;;;;;5101579;28;20408;-82
2024/01/01 09:54:06;;;;;;;14.95;3.30;;;;;;;;;;5115572;27;20422;-82
2024/01/01 09:56:33;;;;;;;15.95;3.50;;;;;;;;;;5120180;27;21116;-82
2024/01/01 09:58:59;;;;;;;19.30;3.55;;;;;;;;;;5124836;27;20459;-82
2024/01/01 10:01:25;;;;;;;14.77;3.30;;;;;;;;;;5088112;27;20403;-82
2024/01/01 10:04:03;;;;;;;17.40;3.38;;;;;;;;;;5120159;27;20468;-82
2024/01/01 10:06:29;;;;;;;18.02;3.45;;;;;;;;;;5095638;27;20396;-82
2024/01/01 10:09:08;;;;;;;16.83;3.90;;;;;;;;;;5105432;27;20456;-83
2024/01/01 10:11:38;;;;;;;17.55;3.65;;;;;;;;;;5124618;27;20390;-82
2024/01/01 10:14:05;;;;;;;12.45;3.13;;;;;;;;;;5100415;28;20420;-82
2024/01/01 10:16:31;;;;;;;14.90;3.30;;;;;;;;;;5116473;27;20396;-81
2024/01/01 10:18:59;;;;;;;16.38;3.30;;;;;;;;;;5100091;27;20421;-81
2024/01/01 10:21:30;;;;;;;14.90;3.10;;;;;;;;;;5098420;27;20433;-82
2024/01/01 10:23:57;;;;;;;13.65;3.42;;;;;;;;;;5096194;28;20457;-82
2024/01/01 10:26:23;;;;;;;19.85;4.03;;;;;;;;;;5118637;27;20768;-82
2024/01/01 10:28:52;;;;;;;18.30;4.60;;;;;;;;;;5109802;27;20466;-83
2024/01/01 10:31:18;;;;;;;16.55;4.10;;;;;;;;;;5100456;27;20408;-84
2024/01/01 10:33:48;;;;;;;17.80;3.97;;;;;;;;;;5122480;27;20453;-84
2024/01/01 10:36:16;;;;;;;18.15;3.17;;;;;;;;;;5118099;28;20928;-83
2024/01/01 10:38:44;;;;;;;17.17;2.88;;;;;;;;;;5120198;27;20422;-84
2024/01/01 10:41:11;;;;;;;19.60;3.65;;;;;;;;;;5114535;28;20431;-84
2024/01/01 10:43:43;;;;;;;17.27;3.40;;;;;;;;;;5124974;28;20944;-85
2024/01/01 10:46:14;;;;;;;15.45;3.50;;;;;;;;;;5105090;28;20400;-84
2024/01/01 10:48:42;;;;;;;15.50;2.85;;;;;;;;;;5100296;28;20915;-83
2024/01/01 10:51:33;;;;;;;17.77;3.45;;;;;;;;;;5100500;28;20400;-84
2024/01/01 10:54:16;;;;;;;18.75;3.53;;;;;;;;;;5120921;28;20412;-85
2024/01/01 10:56:57;;;;;;;15.90;3.33;;;;;;;;;;5104647;28;20475;-84
2024/01/01 10:59:26;;;;;;;20.50;3.13;;;;;;;;;;5099832;28;20428;-84
2024/01/01 11:01:54;;;;;;;15.53;3.20;;;;;;;;;;5100765;28;20413;-84
2024/01/01 11:04:21;;;;;;;15.15;3.80;;;;;;;;;;5127533;28;20859;-85
2024/01/01 11:06:50;;;;;;;14.68;3.13;;;;;;;;;;5100372;28;20410;-83
2024/01/01 11:09:19;;;;;;;14.63;2.88;;;;;;;;;;5091040;28;20400;-84
2024/01/01 11:11:53;;;;;;;14.80;3.00;;;;;;;;;;5108321;28;20442;-83
2024/01/01 11:14:45;;;;;;;13.00;3.15;;;;;;;;;;5119255;28;20859;-82
2024/01/01 11:17:25;;;;;;;14.25;3.05;;;;;;;;;;5106445;28;20387;-82
2024/01/01 11:20:20;;;;;;;15.20;3.17;;;;;;;;;;5096663;28;20423;-83
2024/01/01 11:22:46;;;;;;;18.17;2.85;;;;;;;;;;5097974;27;20407;-81
2024/01/01 11:25:29;;;;;;;14.63;3.05;;;;;;;;;;5107645;28;20404;-83
2024/01/01 11:27:58;;;;;;;16.10;3.53;;;;;;;;;;5120651;27;20400;-82
2024/01/01 11:30:46;;;;;;;15.65;3.63;;;;;;;;;;5125905;27;20399;-82
2024/01/01 11:33:22;;;;;;;17.40;2.85;;;;;;;;;;5107551;27;20413;-83
2024/01/01 11:36:05;;;;;;;11.88;3.28;;;;;;;;;;5096609;27;20390;-84
2024/01/01 11:38:31;;;;;;;14.75;2.70;;;;;;;;;;5104205;27;20401;-84
2024/01/01 11:40:57;;;;;;;19.00;2.63;;;;;;;;;;5095820;27;20436;-82
2024/01/01 11:43:23;;;;;;;13.75;2.85;;;;;;;;;;5124787;27;20759;-83
2024/01/01 11:45:49;;;;;;;11.47;2.33;;;;;;;;;;5109442;27;20400;-81
2024/01/01 11:48:15;;;;;;;16.15;2.95;;;;;;;;;;5117488;27;20410;-83
2024/01/01 11:50:41;;;;;;;14.52;3.22;;;;;;;;;;5124432;27;20420;-82
2024/01/01 11:53:08;;;;;;;10.53;2.63;;;;;;;;;;5098166;28;20543;-82
2024/01/01 11:55:34;;;;;;;12.18;2.80;;;;;;;;;;5103469;27;20420;-82
2024/01/01 11:58:00;;;;;;;13.93;3.15;;;;;;;;;;5118854;27;20400;-82
2024/01/01 12:00:28;;;;;;;14.02;3.67;;;;;;;;;;5099911;27;20424;-82
2024/01/01 12:02:54;;;;;;;14.55;2.65;;;;;;;;;;5126091;27;20480;-82
2024/01/01 12:05:20;;;;;;;15.20;2.67;;;;;;;;;;5121863;27;20872;-82
2024/01/01 12:07:47;;;;;;;10.25;2.10;;;;;;;;;;5107463;27;20401;-82
2024/01/01 12:10:17;;;;;;;9.55;2.70;;;;;;;;;;5102087;27;20411;-82
2024/01/01 12:12:44;;;;;;;11.70;2.97;;;;;;;;;;5101175;28;20467;-82
2024/01/01 12:15:14;;;;;;;9.98;2.22;;;;;;;;;;5103030;27;20416;-83
2024/01/01 12:17:41;;;;;;;8.60;2.20;;;;;;;;;;5103619;28;20469;-83
2024/01/01 12:20:09;;;;;;;12.23;2.70;;;;;;;;;;5097625;27;20421;-82
2024/01/01 12:22:35;;;;;;;9.30;2.22;;;;;;;;;;5110143;27;20409;-82
2024/01/01 12:25:01;;;;;;;11.38;2.40;;;;;;;;;;5094287;27;20404;-81
2024/01/01 12:27:28;;;;;;;8.90;2.07;;;;;;;;;;5127057;27;20480;-83
2024/01/01 12:29:59;;;;;;;9.60;2.33;;;;;;;;;;5093161;28;20404;-83
2024/01/01 12:32:25;;;;;;;12.93;2.83;;;;;;;;;;5089513;27;20404;-82
2024/01/01 12:34:51;;;;;;;10.65;2.70;;;;;;;;;;5117638;27;20423;-82
2024/01/01 12:37:18;;;;;;;7.18;1.88;;;;;;;;;;5122687;27;20423;-83
2024/01/01 12:39:44;;;;;;;9.70;2.50;;;;;;;;;;5101536;28;20931;-82
2024/01/01 12:42:10;;;;;;;12.65;2.63;;;;;;;;;;5097983;28;20538;-81
2024/01/01 12:44:36;;;;;;;11.82;2.30;;;;;;;;;;5123387;27;20387;-83
2024/01/01 12:47:03;;;;;;;12.13;2.50;;;;;;;;;;5100964;28;20396;-82
2024/01/01 12:50:11;;;;;;;;;;;;;;;;;;;;;
2024/01/01 12:52:40;;;;;;;11.52;2.50;;;;;;;;;;5118405;27;20431;-82
2024/01/01 12:55:06;;;;;;;12.10;2.30;;;;;;;;;;5103674;27;20483;-85
2024/01/01 12:57:32;;;;;;;10.57;2.20;;;;;;;;;;5120054;27;20423;-82
2024/01/01 12:59:58;;;;;;;10.55;2.80;;;;;;;;;;5107675;27;20912;-84
2024/01/01 13:02:34;;;;;;;14.50;2.33;;;;;;;;;;5100546;27;20396;-82
2024/01/01 13:05:01;;;;;;;10.97;2.53;;;;;;;;;;5096154;28;20491;-82
2024/01/01 13:07:27;;;;;;;10.95;2.60;;;;;;;;;;5132242;27;20394;-82
2024/01/01 13:09:53;;;;;;;12.55;2.58;;;;;;;;;;5092079;28;20920;-84
2024/01/01 13:12:19;;;;;;;11.73;2.27;;;;;;;;;;5110188;27;20600;-83
2024/01/01 13:14:45;;;;;;;9.98;2.30;;;;;;;;;;5110890;27;20399;-83
2024/01/01 13:17:11;;;;;;;11.85;2.60;;;;;;;;;;5095115;27;21027;-85
2024/01/01 13:19:53;;;;;;;14.53;2.47;;;;;;;;;;5118041;27;20415;-83
2024/01/01 13:22:31;;;;;;;;;;;;;;;;;;;;;
2024/01/01 13:25:01;;;;;;;9.40;2.38;;;;;;;;;;5125355;27;20483;-83
2024/01/01 13:27:27;;;;;;;11.55;2.47;;;;;;;;;;5112427;27;20398;-83
2024/01/01 13:29:53;;;;;;;13.02;2.13;;;;;;;;;;5113994;27;20423;-84
2024/01/01 13:32:19;;;;;;;11.23;3.05;;;;;;;;;;5119070;27;20777;-83
2024/01/01 13:34:45;;;;;;;10.98;2.33;;;;;;;;;;5104992;28;20432;-83
2024/01/01 13:37:12;;;;;;;11.38;2.22;;;;;;;;;;5100074;28;20408;-82
2024/01/01 13:39:38;;;;;;;11.87;2.70;;;;;;;;;;5120812;27;20419;-81
2024/01/01 13:42:04;;;;;;;15.82;2.70;;;;;;;;;;5118285;27;20412;-82
2024/01/01 13:44:30;;;;;;;14.55;2.65;;;;;;;;;;5115760;27;20439;-80
2024/01/01 13:46:56;;;;;;;16.83;3.13;;;;;;;;;;5103244;27;20402;-82
2024/01/01 13:49:22;;;;;;;13.43;2.53;;;;;;;;;;5116273;27;20482;-83
2024/01/01 13:51:51;;;;;;;9.90;2.58;;;;;;;;;;5099335;27;20487;-82
2024/01/01 13:54:17;;;;;;;12.85;2.20;;;;;;;;;;5120467;27;20430;-86
2024/01/01 13:56:44;;;;;;;14.43;2.38;;;;;;;;;;5110126;27;20886;-87
2024/01/01 13:59:10;;;;;;;10.07;2.25;;;;;;;;;;5095686;27;20423;-86
2024/01/01 14:05:13;;;;;;;11.38;2.20;;;;;;;;;;5121687;27;20848;-85
2024/01/01 14:08:07;;;;;;;10.30;2.25;;;;;;;;;;5124625;27;20389;-87
2024/01/01 14:13:45;;;;;;;11.65;2.00;;;;;;;;;;5106990;27;20889;-86
2024/01/01 14:16:17;;;;;;;9.60;2.40;;;;;;;;;;5101537;28;20427;-84
2024/01/01 14:22:44;;;;;;;9.60;2.15;;;;;;;;;;5112202;28;20401;-94
2024/01/01 14:25:31;;;;;;;10.80;2.38;;;;;;;;;;5144039;27;20395;-92
2024/01/01 14:35:16;;;;;;;14.07;2.58;;;;;;;;;;5129372;27;20394;-91
2024/01/01 14:38:16;;;;;;;11.05;2.55;;;;;;;;;;5105724;28;20398;-91
2024/01/01 14:41:39;;;;;;;10.32;2.42;;;;;;;;;;5090375;28;20393;-92
2024/01/01 14:44:41;;;;;;;14.25;3.13;;;;;;;;;;5108957;28;20407;-90
2024/01/01 14:47:11;;;;;;;14.35;2.78;;;;;;;;;;5099443;28;20899;-91
2024/01/01 14:49:48;;;;;;;12.52;2.72;;;;;;;;;;5126511;28;20491;-85
2024/01/01 14:52:29;;;;;;;13.70;2.80;;;;;;;;;;5100726;28;20410;-84
2024/01/01 14:55:35;;;;;;;12.98;2.70;;;;;;;;;;5116280;27;20485;-85
2024/01/01 15:01:11;;;;;;;14.32;2.78;;;;;;;;;;5119558;27;20438;-90
2024/01/01 15:04:00;;;;;;;13.65;2.80;;;;;;;;;;5121125;27;20466;-91
2024/01/01 15:06:43;;;;;;;14.18;2.85;;;;;;;;;;5107269;27;20387;-93
2024/01/01 15:09:20;;;;;;;;;;;;;;;;;;;;;
2024/01/01 15:11:48;;;;;;;11.63;2.97;;;;;;;;;;5135799;27;20419;-83
2024/01/01 15:14:50;;;;;;;;;;;;;;;;;;;;;
2024/01/01 15:18:10;;;;;;;12.30;2.53;;;;;;;;;;5124820;27;20410;-86
2024/01/01 15:23:45;;;;;;;14.18;2.60;;;;;;;;;;5119887;27;20428;-86
2024/01/01 15:26:28;;;;;;;10.65;2.78;;;;;;;;;;5105225;27;20412;-85
2024/01/01 15:28:57;;;;;;;13.37;2.63;;;;;;;;;;5118783;27;20396;-85
2024/01/01 15:31:35;;;;;;;;;;;;;;;;;;;;;
2024/01/01 15:34:04;;;;;;;20.90;3.43;;;;;;;;;;5125351;27;20404;-84